FWKI/LLW METAR and TAF weather

Enter ICAO airport designator
Station Type Date Time Source
FWKI METAR 2022/01/18 05:00 UTC NOAA

FWKI 180500Z 00000KT 9999 FEW021CB 20/19 Q1018 NOSIG


Station Type Date Time Source
FWKI Decoded METAR 2022/01/18 05:00 UTC NOAA

Lilongwe International Airport, Malawi (FWKI) 13-47S 033-46E 1229M
Jan 18, 2022 - 12:00 AM EST / 2022.01.18 0500 UTC
Wind: Calm:0
Visibility: greater than 7 mile(s):0
Sky conditions: mostly clear
Weather: Cumulonimbus clouds observed
Temperature: 68 F (20 C)
Dew Point: 66 F (19 C)
Relative Humidity: 93%
Pressure (altimeter): 30.06 in. Hg (1018 hPa)
ob: FWKI 180500Z 00000KT 9999 FEW021CB 20/19 Q1018 NOSIG
cycle: 5

Station Type Date Time Source
FWKI TAF 2022/01/18 06:45 UTC NOAA

TAF TAF FWKI 180400Z 1806/1912 17006KT 9999 FEW022CB BKN025 PROB30
TEMPO 1808/1813 VRB10G20KT 6000 -TSRA FEW020CB BKN022CB
BECMG 1819/1821 09007KT 9999 FEW020CB BKN080

Example: see airport list